sensor_id;sensor_type;location;lat;lon;timestamp;P1;durP1;ratioP1;P2;durP2;ratioP2
22754;SDS011;11544;42.020;23.094;2023-05-20T00:01:26;10.05;;;5.95;;
22754;SDS011;11544;42.020;23.094;2023-05-20T00:03:53;11.88;;;6.47;;
22754;SDS011;11544;42.020;23.094;2023-05-20T00:06:22;9.95;;;6.00;;
22754;SDS011;11544;42.020;23.094;2023-05-20T00:08:49;8.50;;;6.18;;
22754;SDS011;11544;42.020;23.094;2023-05-20T00:11:18;11.13;;;6.22;;
22754;SDS011;11544;42.020;23.094;2023-05-20T00:13:51;11.07;;;7.03;;
22754;SDS011;11544;42.020;23.094;2023-05-20T00:16:18;11.07;;;7.03;;
22754;SDS011;11544;42.020;23.094;2023-05-20T00:18:45;8.88;;;6.18;;
22754;SDS011;11544;42.020;23.094;2023-05-20T00:21:13;10.80;;;6.70;;
22754;SDS011;11544;42.020;23.094;2023-05-20T00:23:40;10.15;;;6.85;;
22754;SDS011;11544;42.020;23.094;2023-05-20T00:26:07;10.10;;;6.75;;
22754;SDS011;11544;42.020;23.094;2023-05-20T00:28:35;10.88;;;6.88;;
22754;SDS011;11544;42.020;23.094;2023-05-20T00:31:02;11.18;;;7.45;;
22754;SDS011;11544;42.020;23.094;2023-05-20T00:33:29;10.75;;;6.32;;
22754;SDS011;11544;42.020;23.094;2023-05-20T00:35:56;9.90;;;6.30;;
22754;SDS011;11544;42.020;23.094;2023-05-20T00:38:23;8.40;;;6.32;;
22754;SDS011;11544;42.020;23.094;2023-05-20T00:40:50;13.85;;;6.65;;
22754;SDS011;11544;42.020;23.094;2023-05-20T00:43:17;11.32;;;6.97;;
22754;SDS011;11544;42.020;23.094;2023-05-20T00:45:46;12.77;;;6.88;;
22754;SDS011;11544;42.020;23.094;2023-05-20T00:48:13;9.82;;;6.30;;
22754;SDS011;11544;42.020;23.094;2023-05-20T00:50:40;10.40;;;6.88;;
22754;SDS011;11544;42.020;23.094;2023-05-20T00:53:07;12.05;;;6.47;;
22754;SDS011;11544;42.020;23.094;2023-05-20T00:55:35;10.95;;;6.88;;
22754;SDS011;11544;42.020;23.094;2023-05-20T00:58:03;9.93;;;7.03;;
22754;SDS011;11544;42.020;23.094;2023-05-20T01:00:31;11.00;;;6.18;;
22754;SDS011;11544;42.020;23.094;2023-05-20T01:02:57;8.70;;;6.93;;
22754;SDS011;11544;42.020;23.094;2023-05-20T01:05:25;10.48;;;5.72;;
22754;SDS011;11544;42.020;23.094;2023-05-20T01:07:52;10.98;;;6.85;;
22754;SDS011;11544;42.020;23.094;2023-05-20T01:10:19;10.07;;;6.40;;
22754;SDS011;11544;42.020;23.094;2023-05-20T01:12:49;10.70;;;6.90;;
22754;SDS011;11544;42.020;23.094;2023-05-20T01:15:23;12.82;;;6.45;;
22754;SDS011;11544;42.020;23.094;2023-05-20T01:17:57;9.32;;;6.07;;
22754;SDS011;11544;42.020;23.094;2023-05-20T01:20:31;8.73;;;6.63;;
22754;SDS011;11544;42.020;23.094;2023-05-20T01:22:59;11.82;;;6.20;;
22754;SDS011;11544;42.020;23.094;2023-05-20T01:25:28;12.95;;;6.90;;
22754;SDS011;11544;42.020;23.094;2023-05-20T01:27:55;11.32;;;7.40;;
22754;SDS011;11544;42.020;23.094;2023-05-20T01:30:28;11.95;;;6.85;;
22754;SDS011;11544;42.020;23.094;2023-05-20T01:33:08;10.45;;;6.43;;
22754;SDS011;11544;42.020;23.094;2023-05-20T01:35:38;10.48;;;6.78;;
22754;SDS011;11544;42.020;23.094;2023-05-20T01:38:06;13.98;;;7.28;;
22754;SDS011;11544;42.020;23.094;2023-05-20T01:40:34;14.35;;;7.22;;
22754;SDS011;11544;42.020;23.094;2023-05-20T01:43:01;10.40;;;6.88;;
22754;SDS011;11544;42.020;23.094;2023-05-20T01:45:29;9.88;;;7.03;;
22754;SDS011;11544;42.020;23.094;2023-05-20T01:47:56;9.02;;;6.30;;
22754;SDS011;11544;42.020;23.094;2023-05-20T01:50:24;13.77;;;6.90;;
22754;SDS011;11544;42.020;23.094;2023-05-20T01:52:52;10.13;;;6.80;;
22754;SDS011;11544;42.020;23.094;2023-05-20T01:55:19;8.82;;;6.85;;
22754;SDS011;11544;42.020;23.094;2023-05-20T01:57:46;12.18;;;8.38;;
22754;SDS011;11544;42.020;23.094;2023-05-20T02:00:13;15.60;;;8.85;;
22754;SDS011;11544;42.020;23.094;2023-05-20T02:02:40;12.18;;;7.50;;
22754;SDS011;11544;42.020;23.094;2023-05-20T02:05:08;11.90;;;7.10;;
22754;SDS011;11544;42.020;23.094;2023-05-20T02:07:35;9.93;;;7.18;;
22754;SDS011;11544;42.020;23.094;2023-05-20T02:10:02;14.45;;;7.80;;
22754;SDS011;11544;42.020;23.094;2023-05-20T02:12:29;11.93;;;8.85;;
22754;SDS011;11544;42.020;23.094;2023-05-20T02:14:56;13.13;;;8.10;;
22754;SDS011;11544;42.020;23.094;2023-05-20T02:17:23;11.30;;;7.43;;
22754;SDS011;11544;42.020;23.094;2023-05-20T02:19:50;9.82;;;6.78;;
22754;SDS011;11544;42.020;23.094;2023-05-20T02:22:18;14.48;;;7.00;;
22754;SDS011;11544;42.020;23.094;2023-05-20T02:24:44;13.85;;;7.05;;
22754;SDS011;11544;42.020;23.094;2023-05-20T02:27:11;11.25;;;6.85;;
22754;SDS011;11544;42.020;23.094;2023-05-20T02:29:38;11.23;;;7.40;;
22754;SDS011;11544;42.020;23.094;2023-05-20T02:32:05;11.77;;;6.93;;
22754;SDS011;11544;42.020;23.094;2023-05-20T02:34:33;10.45;;;7.15;;
22754;SDS011;11544;42.020;23.094;2023-05-20T02:36:59;10.68;;;6.82;;
22754;SDS011;11544;42.020;23.094;2023-05-20T02:39:28;17.90;;;7.03;;
22754;SDS011;11544;42.020;23.094;2023-05-20T02:41:56;10.05;;;6.47;;
22754;SDS011;11544;42.020;23.094;2023-05-20T02:44:23;10.90;;;6.60;;
22754;SDS011;11544;42.020;23.094;2023-05-20T02:46:50;11.82;;;6.63;;
22754;SDS011;11544;42.020;23.094;2023-05-20T02:49:17;10.55;;;7.00;;
22754;SDS011;11544;42.020;23.094;2023-05-20T02:51:46;8.50;;;6.88;;
22754;SDS011;11544;42.020;23.094;2023-05-20T02:54:17;10.77;;;7.00;;
22754;SDS011;11544;42.020;23.094;2023-05-20T02:56:45;11.95;;;6.78;;
22754;SDS011;11544;42.020;23.094;2023-05-20T02:59:12;9.65;;;7.07;;
22754;SDS011;11544;42.020;23.094;2023-05-20T03:02:20;11.65;;;7.25;;
22754;SDS011;11544;42.020;23.094;2023-05-20T03:04:52;15.63;;;7.35;;
22754;SDS011;11544;42.020;23.094;2023-05-20T03:07:20;15.98;;;7.53;;
22754;SDS011;11544;42.020;23.094;2023-05-20T03:09:47;11.70;;;7.20;;
22754;SDS011;11544;42.020;23.094;2023-05-20T03:12:14;10.68;;;6.85;;
22754;SDS011;11544;42.020;23.094;2023-05-20T03:14:41;12.82;;;7.03;;
22754;SDS011;11544;42.020;23.094;2023-05-20T03:17:08;9.45;;;6.75;;
22754;SDS011;11544;42.020;23.094;2023-05-20T03:19:36;10.40;;;6.63;;
22754;SDS011;11544;42.020;23.094;2023-05-20T03:22:04;9.75;;;6.03;;
22754;SDS011;11544;42.020;23.094;2023-05-20T03:24:31;11.38;;;7.43;;
22754;SDS011;11544;42.020;23.094;2023-05-20T03:26:58;9.35;;;6.88;;
22754;SDS011;11544;42.020;23.094;2023-05-20T03:29:25;12.60;;;7.82;;
22754;SDS011;11544;42.020;23.094;2023-05-20T03:31:52;14.52;;;9.27;;
22754;SDS011;11544;42.020;23.094;2023-05-20T03:34:19;11.30;;;7.57;;
22754;SDS011;11544;42.020;23.094;2023-05-20T03:36:47;10.98;;;7.20;;
22754;SDS011;11544;42.020;23.094;2023-05-20T03:39:21;10.43;;;7.13;;
22754;SDS011;11544;42.020;23.094;2023-05-20T03:41:48;11.27;;;7.15;;
22754;SDS011;11544;42.020;23.094;2023-05-20T03:44:15;11.88;;;6.65;;
22754;SDS011;11544;42.020;23.094;2023-05-20T03:46:42;10.80;;;6.07;;
22754;SDS011;11544;42.020;23.094;2023-05-20T03:49:09;13.75;;;7.25;;
22754;SDS011;11544;42.020;23.094;2023-05-20T03:51:36;11.57;;;6.47;;
22754;SDS011;11544;42.020;23.094;2023-05-20T03:54:03;10.13;;;6.30;;
22754;SDS011;11544;42.020;23.094;2023-05-20T03:56:31;10.90;;;7.65;;
22754;SDS011;11544;42.020;23.094;2023-05-20T03:58:58;8.88;;;6.40;;
22754;SDS011;11544;42.020;23.094;2023-05-20T04:01:25;8.68;;;6.35;;
22754;SDS011;11544;42.020;23.094;2023-05-20T04:03:52;15.02;;;7.40;;
22754;SDS011;11544;42.020;23.094;2023-05-20T04:06:19;11.43;;;7.03;;
22754;SDS011;11544;42.020;23.094;2023-05-20T04:08:48;9.55;;;5.90;;
22754;SDS011;11544;42.020;23.094;2023-05-20T04:11:16;10.90;;;7.50;;
22754;SDS011;11544;42.020;23.094;2023-05-20T04:13:42;15.75;;;8.90;;
22754;SDS011;11544;42.020;23.094;2023-05-20T04:16:09;11.75;;;7.55;;
22754;SDS011;11544;42.020;23.094;2023-05-20T04:18:40;11.48;;;8.05;;
22754;SDS011;11544;42.020;23.094;2023-05-20T04:21:13;11.13;;;7.80;;
22754;SDS011;11544;42.020;23.094;2023-05-20T04:23:41;11.63;;;7.18;;
22754;SDS011;11544;42.020;23.094;2023-05-20T04:26:08;10.35;;;8.20;;
22754;SDS011;11544;42.020;23.094;2023-05-20T04:28:36;10.93;;;7.28;;
22754;SDS011;11544;42.020;23.094;2023-05-20T04:31:04;16.08;;;7.30;;
22754;SDS011;11544;42.020;23.094;2023-05-20T04:33:31;13.88;;;7.43;;
22754;SDS011;11544;42.020;23.094;2023-05-20T04:35:58;12.50;;;8.50;;
22754;SDS011;11544;42.020;23.094;2023-05-20T04:38:26;13.80;;;8.23;;
22754;SDS011;11544;42.020;23.094;2023-05-20T04:40:58;12.85;;;7.18;;
22754;SDS011;11544;42.020;23.094;2023-05-20T04:43:26;14.43;;;8.80;;
22754;SDS011;11544;42.020;23.094;2023-05-20T04:45:57;14.15;;;8.02;;
22754;SDS011;11544;42.020;23.094;2023-05-20T04:48:25;9.63;;;6.45;;
22754;SDS011;11544;42.020;23.094;2023-05-20T04:50:52;13.75;;;7.07;;
22754;SDS011;11544;42.020;23.094;2023-05-20T04:53:22;8.73;;;6.75;;
22754;SDS011;11544;42.020;23.094;2023-05-20T04:55:53;12.27;;;7.13;;
22754;SDS011;11544;42.020;23.094;2023-05-20T04:58:20;13.88;;;7.90;;
22754;SDS011;11544;42.020;23.094;2023-05-20T05:00:49;19.90;;;8.35;;
22754;SDS011;11544;42.020;23.094;2023-05-20T05:03:17;16.98;;;9.27;;
22754;SDS011;11544;42.020;23.094;2023-05-20T05:05:44;15.23;;;8.15;;
22754;SDS011;11544;42.020;23.094;2023-05-20T05:08:11;17.00;;;9.45;;
22754;SDS011;11544;42.020;23.094;2023-05-20T05:10:38;14.13;;;9.13;;
22754;SDS011;11544;42.020;23.094;2023-05-20T05:13:05;15.60;;;9.35;;
22754;SDS011;11544;42.020;23.094;2023-05-20T05:15:32;16.10;;;9.75;;
22754;SDS011;11544;42.020;23.094;2023-05-20T05:18:00;14.30;;;8.95;;
22754;SDS011;11544;42.020;23.094;2023-05-20T05:20:30;16.90;;;8.85;;
22754;SDS011;11544;42.020;23.094;2023-05-20T05:23:00;12.25;;;8.60;;
22754;SDS011;11544;42.020;23.094;2023-05-20T05:25:27;14.77;;;9.27;;
22754;SDS011;11544;42.020;23.094;2023-05-20T05:27:54;15.98;;;9.90;;
22754;SDS011;11544;42.020;23.094;2023-05-20T05:30:21;18.17;;;10.55;;
22754;SDS011;11544;42.020;23.094;2023-05-20T05:32:48;18.65;;;10.20;;
22754;SDS011;11544;42.020;23.094;2023-05-20T05:35:15;12.35;;;9.20;;
22754;SDS011;11544;42.020;23.094;2023-05-20T05:37:42;15.30;;;9.40;;
22754;SDS011;11544;42.020;23.094;2023-05-20T05:40:09;14.95;;;9.80;;
22754;SDS011;11544;42.020;23.094;2023-05-20T05:42:37;15.00;;;8.48;;
22754;SDS011;11544;42.020;23.094;2023-05-20T05:45:04;14.02;;;9.32;;
22754;SDS011;11544;42.020;23.094;2023-05-20T05:47:31;17.08;;;9.60;;
22754;SDS011;11544;42.020;23.094;2023-05-20T05:49:58;13.88;;;8.82;;
22754;SDS011;11544;42.020;23.094;2023-05-20T05:52:28;16.17;;;8.55;;
22754;SDS011;11544;42.020;23.094;2023-05-20T05:54:55;11.48;;;8.35;;
22754;SDS011;11544;42.020;23.094;2023-05-20T05:57:22;12.27;;;8.60;;
22754;SDS011;11544;42.020;23.094;2023-05-20T05:59:51;11.77;;;8.43;;
22754;SDS011;11544;42.020;23.094;2023-05-20T06:02:21;12.27;;;7.85;;
22754;SDS011;11544;42.020;23.094;2023-05-20T06:04:48;12.63;;;8.98;;
22754;SDS011;11544;42.020;23.094;2023-05-20T06:07:18;11.90;;;7.93;;
22754;SDS011;11544;42.020;23.094;2023-05-20T06:09:47;16.48;;;8.88;;
22754;SDS011;11544;42.020;23.094;2023-05-20T06:12:14;16.90;;;8.75;;
22754;SDS011;11544;42.020;23.094;2023-05-20T06:14:41;15.43;;;9.32;;
22754;SDS011;11544;42.020;23.094;2023-05-20T06:17:08;16.33;;;8.73;;
22754;SDS011;11544;42.020;23.094;2023-05-20T06:19:35;15.75;;;9.55;;
22754;SDS011;11544;42.020;23.094;2023-05-20T06:22:02;12.82;;;8.57;;
22754;SDS011;11544;42.020;23.094;2023-05-20T06:24:30;14.40;;;8.65;;
22754;SDS011;11544;42.020;23.094;2023-05-20T06:26:59;12.63;;;8.73;;
22754;SDS011;11544;42.020;23.094;2023-05-20T06:29:27;14.52;;;9.73;;
22754;SDS011;11544;42.020;23.094;2023-05-20T06:31:54;14.88;;;9.30;;
22754;SDS011;11544;42.020;23.094;2023-05-20T06:34:22;17.10;;;8.95;;
22754;SDS011;11544;42.020;23.094;2023-05-20T06:36:48;12.55;;;8.40;;
22754;SDS011;11544;42.020;23.094;2023-05-20T06:39:16;14.60;;;8.48;;
22754;SDS011;11544;42.020;23.094;2023-05-20T06:41:45;14.35;;;9.00;;
22754;SDS011;11544;42.020;23.094;2023-05-20T06:44:12;12.82;;;8.68;;
22754;SDS011;11544;42.020;23.094;2023-05-20T06:46:39;16.23;;;9.35;;
22754;SDS011;11544;42.020;23.094;2023-05-20T06:49:09;16.23;;;8.75;;
22754;SDS011;11544;42.020;23.094;2023-05-20T06:51:36;18.35;;;9.43;;
22754;SDS011;11544;42.020;23.094;2023-05-20T06:54:03;13.10;;;8.35;;
22754;SDS011;11544;42.020;23.094;2023-05-20T06:56:30;22.38;;;8.68;;
22754;SDS011;11544;42.020;23.094;2023-05-20T06:58:57;15.70;;;8.98;;
22754;SDS011;11544;42.020;23.094;2023-05-20T07:01:24;11.95;;;8.35;;
22754;SDS011;11544;42.020;23.094;2023-05-20T07:03:51;17.95;;;9.00;;
22754;SDS011;11544;42.020;23.094;2023-05-20T07:06:18;16.52;;;9.05;;
22754;SDS011;11544;42.020;23.094;2023-05-20T07:08:46;18.02;;;9.30;;
22754;SDS011;11544;42.020;23.094;2023-05-20T07:11:13;15.02;;;8.10;;
22754;SDS011;11544;42.020;23.094;2023-05-20T07:13:40;10.93;;;8.43;;
22754;SDS011;11544;42.020;23.094;2023-05-20T07:16:07;18.17;;;7.30;;
22754;SDS011;11544;42.020;23.094;2023-05-20T07:18:34;12.75;;;9.20;;
22754;SDS011;11544;42.020;23.094;2023-05-20T07:21:03;21.80;;;7.57;;
22754;SDS011;11544;42.020;23.094;2023-05-20T07:23:33;13.15;;;8.65;;
22754;SDS011;11544;42.020;23.094;2023-05-20T07:26:00;12.93;;;8.80;;
22754;SDS011;11544;42.020;23.094;2023-05-20T07:28:28;12.35;;;7.95;;
22754;SDS011;11544;42.020;23.094;2023-05-20T07:30:56;12.00;;;7.40;;
22754;SDS011;11544;42.020;23.094;2023-05-20T07:33:24;14.63;;;8.00;;
22754;SDS011;11544;42.020;23.094;2023-05-20T07:35:50;11.65;;;7.63;;
22754;SDS011;11544;42.020;23.094;2023-05-20T07:38:20;11.05;;;7.70;;
22754;SDS011;11544;42.020;23.094;2023-05-20T07:40:47;10.20;;;6.30;;
22754;SDS011;11544;42.020;23.094;2023-05-20T07:43:14;12.35;;;6.50;;
22754;SDS011;11544;42.020;23.094;2023-05-20T07:45:42;12.23;;;6.47;;
22754;SDS011;11544;42.020;23.094;2023-05-20T07:48:08;8.80;;;6.50;;
22754;SDS011;11544;42.020;23.094;2023-05-20T07:50:36;11.25;;;6.60;;
22754;SDS011;11544;42.020;23.094;2023-05-20T07:53:03;9.80;;;6.72;;
22754;SDS011;11544;42.020;23.094;2023-05-20T07:55:32;14.98;;;6.35;;
22754;SDS011;11544;42.020;23.094;2023-05-20T07:58:08;12.13;;;6.60;;
22754;SDS011;11544;42.020;23.094;2023-05-20T08:00:35;9.90;;;6.75;;
22754;SDS011;11544;42.020;23.094;2023-05-20T08:03:02;8.05;;;6.13;;
22754;SDS011;11544;42.020;23.094;2023-05-20T08:05:29;11.55;;;6.88;;
22754;SDS011;11544;42.020;23.094;2023-05-20T08:07:57;14.18;;;7.28;;
22754;SDS011;11544;42.020;23.094;2023-05-20T08:10:24;10.38;;;6.50;;
22754;SDS011;11544;42.020;23.094;2023-05-20T08:12:51;13.05;;;7.07;;
22754;SDS011;11544;42.020;23.094;2023-05-20T08:15:18;9.10;;;5.93;;
22754;SDS011;11544;42.020;23.094;2023-05-20T08:17:45;11.95;;;6.32;;
22754;SDS011;11544;42.020;23.094;2023-05-20T08:20:12;9.35;;;6.47;;
22754;SDS011;11544;42.020;23.094;2023-05-20T08:22:42;12.43;;;6.47;;
22754;SDS011;11544;42.020;23.094;2023-05-20T08:25:09;17.17;;;7.28;;
22754;SDS011;11544;42.020;23.094;2023-05-20T08:27:36;10.55;;;6.63;;
22754;SDS011;11544;42.020;23.094;2023-05-20T08:30:03;11.13;;;6.05;;
22754;SDS011;11544;42.020;23.094;2023-05-20T08:32:33;10.82;;;7.28;;
22754;SDS011;11544;42.020;23.094;2023-05-20T08:35:00;10.30;;;5.93;;
22754;SDS011;11544;42.020;23.094;2023-05-20T08:37:28;12.10;;;6.07;;
22754;SDS011;11544;42.020;23.094;2023-05-20T08:39:55;14.30;;;6.15;;
22754;SDS011;11544;42.020;23.094;2023-05-20T08:42:22;6.80;;;5.80;;
22754;SDS011;11544;42.020;23.094;2023-05-20T08:44:51;10.80;;;6.18;;
22754;SDS011;11544;42.020;23.094;2023-05-20T08:47:19;9.93;;;6.47;;
22754;SDS011;11544;42.020;23.094;2023-05-20T08:49:47;9.63;;;6.88;;
22754;SDS011;11544;42.020;23.094;2023-05-20T08:52:15;8.65;;;5.90;;
22754;SDS011;11544;42.020;23.094;2023-05-20T08:55:02;6.13;;;5.13;;
22754;SDS011;11544;42.020;23.094;2023-05-20T08:57:33;9.18;;;5.57;;
22754;SDS011;11544;42.020;23.094;2023-05-20T09:00:02;8.75;;;5.32;;
22754;SDS011;11544;42.020;23.094;2023-05-20T09:02:40;8.45;;;6.45;;
22754;SDS011;11544;42.020;23.094;2023-05-20T09:05:09;12.23;;;6.07;;
22754;SDS011;11544;42.020;23.094;2023-05-20T09:07:37;11.40;;;6.78;;
22754;SDS011;11544;42.020;23.094;2023-05-20T09:10:04;11.85;;;5.80;;
22754;SDS011;11544;42.020;23.094;2023-05-20T09:12:31;8.18;;;5.90;;
22754;SDS011;11544;42.020;23.094;2023-05-20T09:14:58;8.30;;;5.75;;
22754;SDS011;11544;42.020;23.094;2023-05-20T09:17:25;9.80;;;5.50;;
22754;SDS011;11544;42.020;23.094;2023-05-20T09:19:52;8.57;;;5.78;;
22754;SDS011;11544;42.020;23.094;2023-05-20T09:22:26;12.60;;;6.85;;
22754;SDS011;11544;42.020;23.094;2023-05-20T09:24:54;11.00;;;5.88;;
22754;SDS011;11544;42.020;23.094;2023-05-20T09:27:22;12.73;;;6.25;;
22754;SDS011;11544;42.020;23.094;2023-05-20T09:29:50;8.85;;;5.55;;
22754;SDS011;11544;42.020;23.094;2023-05-20T09:32:17;10.05;;;6.15;;
22754;SDS011;11544;42.020;23.094;2023-05-20T09:34:49;9.23;;;5.80;;
22754;SDS011;11544;42.020;23.094;2023-05-20T09:37:16;12.65;;;5.75;;
22754;SDS011;11544;42.020;23.094;2023-05-20T09:40:03;8.32;;;5.50;;
22754;SDS011;11544;42.020;23.094;2023-05-20T09:42:43;8.18;;;5.20;;
22754;SDS011;11544;42.020;23.094;2023-05-20T09:45:16;13.18;;;6.53;;
22754;SDS011;11544;42.020;23.094;2023-05-20T09:47:56;8.10;;;5.82;;
22754;SDS011;11544;42.020;23.094;2023-05-20T09:50:25;9.07;;;5.85;;
22754;SDS011;11544;42.020;23.094;2023-05-20T09:52:54;10.32;;;6.18;;
22754;SDS011;11544;42.020;23.094;2023-05-20T09:55:23;12.90;;;5.63;;
22754;SDS011;11544;42.020;23.094;2023-05-20T09:57:50;9.18;;;5.68;;
22754;SDS011;11544;42.020;23.094;2023-05-20T10:00:20;8.55;;;5.63;;
22754;SDS011;11544;42.020;23.094;2023-05-20T10:02:48;10.60;;;5.72;;
22754;SDS011;11544;42.020;23.094;2023-05-20T10:13:31;10.35;;;5.90;;
22754;SDS011;11544;42.020;23.094;2023-05-20T10:18:44;9.60;;;5.85;;
22754;SDS011;11544;42.020;23.094;2023-05-20T10:21:21;8.68;;;5.35;;
22754;SDS011;11544;42.020;23.094;2023-05-20T10:24:13;6.60;;;4.78;;
22754;SDS011;11544;42.020;23.094;2023-05-20T10:26:41;9.20;;;5.30;;
22754;SDS011;11544;42.020;23.094;2023-05-20T10:29:17;7.95;;;4.80;;
22754;SDS011;11544;42.020;23.094;2023-05-20T10:31:49;6.72;;;4.93;;
22754;SDS011;11544;42.020;23.094;2023-05-20T10:34:21;6.28;;;4.53;;
22754;SDS011;11544;42.020;23.094;2023-05-20T10:39:28;6.55;;;4.28;;
22754;SDS011;11544;42.020;23.094;2023-05-20T10:42:08;5.00;;;4.05;;
22754;SDS011;11544;42.020;23.094;2023-05-20T10:44:44;8.20;;;3.80;;
22754;SDS011;11544;42.020;23.094;2023-05-20T10:47:12;5.80;;;4.15;;
22754;SDS011;11544;42.020;23.094;2023-05-20T10:49:45;6.55;;;3.72;;
22754;SDS011;11544;42.020;23.094;2023-05-20T10:52:13;6.85;;;4.80;;
22754;SDS011;11544;42.020;23.094;2023-05-20T10:54:54;6.95;;;3.92;;
22754;SDS011;11544;42.020;23.094;2023-05-20T10:57:24;9.27;;;4.15;;
22754;SDS011;11544;42.020;23.094;2023-05-20T10:59:52;6.03;;;3.95;;
22754;SDS011;11544;42.020;23.094;2023-05-20T11:02:19;6.93;;;4.43;;
22754;SDS011;11544;42.020;23.094;2023-05-20T11:04:52;6.55;;;4.05;;
22754;SDS011;11544;42.020;23.094;2023-05-20T11:07:24;4.93;;;4.22;;
22754;SDS011;11544;42.020;23.094;2023-05-20T11:09:53;5.97;;;3.83;;
22754;SDS011;11544;42.020;23.094;2023-05-20T11:12:22;6.20;;;5.00;;
22754;SDS011;11544;42.020;23.094;2023-05-20T11:14:49;7.85;;;5.22;;
22754;SDS011;11544;42.020;23.094;2023-05-20T11:17:20;6.28;;;4.40;;
22754;SDS011;11544;42.020;23.094;2023-05-20T11:19:47;8.05;;;4.72;;
22754;SDS011;11544;42.020;23.094;2023-05-20T11:22:16;9.38;;;4.80;;
22754;SDS011;11544;42.020;23.094;2023-05-20T11:24:43;7.88;;;4.43;;
22754;SDS011;11544;42.020;23.094;2023-05-20T11:27:10;5.93;;;4.45;;
22754;SDS011;11544;42.020;23.094;2023-05-20T11:29:37;4.68;;;3.72;;
22754;SDS011;11544;42.020;23.094;2023-05-20T11:32:06;5.13;;;4.05;;
22754;SDS011;11544;42.020;23.094;2023-05-20T11:34:34;5.82;;;4.18;;
22754;SDS011;11544;42.020;23.094;2023-05-20T11:37:05;7.20;;;4.55;;
22754;SDS011;11544;42.020;23.094;2023-05-20T11:39:34;5.32;;;3.88;;
22754;SDS011;11544;42.020;23.094;2023-05-20T11:42:02;8.25;;;4.40;;
22754;SDS011;11544;42.020;23.094;2023-05-20T11:44:31;7.68;;;4.13;;
22754;SDS011;11544;42.020;23.094;2023-05-20T11:47:02;8.32;;;4.80;;
22754;SDS011;11544;42.020;23.094;2023-05-20T11:49:29;7.60;;;4.10;;
22754;SDS011;11544;42.020;23.094;2023-05-20T11:51:58;6.65;;;4.43;;
22754;SDS011;11544;42.020;23.094;2023-05-20T11:54:25;5.13;;;4.05;;
22754;SDS011;11544;42.020;23.094;2023-05-20T11:56:52;4.53;;;4.07;;
22754;SDS011;11544;42.020;23.094;2023-05-20T11:59:20;6.55;;;4.25;;
22754;SDS011;11544;42.020;23.094;2023-05-20T12:01:50;6.55;;;4.35;;
22754;SDS011;11544;42.020;23.094;2023-05-20T12:04:17;7.97;;;4.20;;
22754;SDS011;11544;42.020;23.094;2023-05-20T12:06:51;7.30;;;4.22;;
22754;SDS011;11544;42.020;23.094;2023-05-20T12:36:54;4.63;;;3.97;;
22754;SDS011;11544;42.020;23.094;2023-05-20T12:39:22;8.85;;;4.03;;
22754;SDS011;11544;42.020;23.094;2023-05-20T12:41:55;5.18;;;4.55;;
22754;SDS011;11544;42.020;23.094;2023-05-20T12:44:27;6.63;;;4.38;;
22754;SDS011;11544;42.020;23.094;2023-05-20T12:46:54;6.72;;;4.93;;
22754;SDS011;11544;42.020;23.094;2023-05-20T12:49:21;4.45;;;4.05;;
22754;SDS011;11544;42.020;23.094;2023-05-20T12:59:47;5.93;;;4.10;;
22754;SDS011;11544;42.020;23.094;2023-05-20T13:02:18;7.05;;;4.40;;
22754;SDS011;11544;42.020;23.094;2023-05-20T13:04:47;8.75;;;4.57;;
22754;SDS011;11544;42.020;23.094;2023-05-20T13:07:14;7.10;;;4.35;;
22754;SDS011;11544;42.020;23.094;2023-05-20T13:09:42;7.75;;;4.63;;
22754;SDS011;11544;42.020;23.094;2023-05-20T13:12:10;7.53;;;4.63;;
22754;SDS011;11544;42.020;23.094;2023-05-20T13:14:36;7.18;;;4.63;;
22754;SDS011;11544;42.020;23.094;2023-05-20T13:17:03;5.35;;;4.20;;
22754;SDS011;11544;42.020;23.094;2023-05-20T13:19:30;7.40;;;4.63;;
22754;SDS011;11544;42.020;23.094;2023-05-20T13:21:57;10.23;;;4.25;;
22754;SDS011;11544;42.020;23.094;2023-05-20T13:24:24;4.85;;;3.85;;
22754;SDS011;11544;42.020;23.094;2023-05-20T13:26:51;7.25;;;4.05;;
22754;SDS011;11544;42.020;23.094;2023-05-20T13:29:18;6.05;;;4.38;;
22754;SDS011;11544;42.020;23.094;2023-05-20T13:31:45;5.72;;;3.92;;
22754;SDS011;11544;42.020;23.094;2023-05-20T13:34:13;5.22;;;4.20;;
22754;SDS011;11544;42.020;23.094;2023-05-20T13:36:40;5.85;;;3.90;;
22754;SDS011;11544;42.020;23.094;2023-05-20T13:39:07;7.53;;;3.97;;
22754;SDS011;11544;42.020;23.094;2023-05-20T13:41:34;7.88;;;4.15;;
22754;SDS011;11544;42.020;23.094;2023-05-20T13:44:01;7.47;;;4.18;;
22754;SDS011;11544;42.020;23.094;2023-05-20T13:46:28;4.97;;;3.75;;
22754;SDS011;11544;42.020;23.094;2023-05-20T13:48:55;4.93;;;4.00;;
22754;SDS011;11544;42.020;23.094;2023-05-20T13:51:21;4.93;;;3.63;;
22754;SDS011;11544;42.020;23.094;2023-05-20T13:53:48;7.18;;;4.40;;
22754;SDS011;11544;42.020;23.094;2023-05-20T13:56:15;5.13;;;4.25;;
22754;SDS011;11544;42.020;23.094;2023-05-20T13:58:42;9.13;;;4.60;;
22754;SDS011;11544;42.020;23.094;2023-05-20T14:01:09;4.82;;;4.15;;
22754;SDS011;11544;42.020;23.094;2023-05-20T14:03:37;4.88;;;3.90;;
22754;SDS011;11544;42.020;23.094;2023-05-20T14:06:06;5.50;;;3.63;;
22754;SDS011;11544;42.020;23.094;2023-05-20T14:08:33;4.82;;;3.78;;
22754;SDS011;11544;42.020;23.094;2023-05-20T14:11:00;7.57;;;3.47;;
22754;SDS011;11544;42.020;23.094;2023-05-20T14:13:27;4.88;;;3.35;;
22754;SDS011;11544;42.020;23.094;2023-05-20T14:15:54;4.53;;;3.72;;
22754;SDS011;11544;42.020;23.094;2023-05-20T14:18:21;6.32;;;3.92;;
22754;SDS011;11544;42.020;23.094;2023-05-20T14:20:48;4.45;;;3.45;;
22754;SDS011;11544;42.020;23.094;2023-05-20T14:23:15;7.35;;;3.72;;
22754;SDS011;11544;42.020;23.094;2023-05-20T14:25:54;6.03;;;4.20;;
22754;SDS011;11544;42.020;23.094;2023-05-20T14:28:23;5.30;;;4.15;;
22754;SDS011;11544;42.020;23.094;2023-05-20T14:30:50;5.07;;;3.97;;
22754;SDS011;11544;42.020;23.094;2023-05-20T14:33:18;8.07;;;4.47;;
22754;SDS011;11544;42.020;23.094;2023-05-20T14:35:45;4.65;;;4.13;;
22754;SDS011;11544;42.020;23.094;2023-05-20T14:38:27;6.00;;;4.90;;
22754;SDS011;11544;42.020;23.094;2023-05-20T14:40:54;9.52;;;4.32;;
22754;SDS011;11544;42.020;23.094;2023-05-20T14:43:24;6.53;;;4.38;;
22754;SDS011;11544;42.020;23.094;2023-05-20T14:45:51;5.78;;;4.15;;
22754;SDS011;11544;42.020;23.094;2023-05-20T14:48:18;5.20;;;3.88;;
22754;SDS011;11544;42.020;23.094;2023-05-20T14:50:45;5.07;;;3.85;;
22754;SDS011;11544;42.020;23.094;2023-05-20T14:53:15;5.38;;;4.00;;
22754;SDS011;11544;42.020;23.094;2023-05-20T14:55:42;7.63;;;3.97;;
22754;SDS011;11544;42.020;23.094;2023-05-20T14:58:09;4.32;;;3.40;;
22754;SDS011;11544;42.020;23.094;2023-05-20T15:00:37;6.47;;;4.55;;
22754;SDS011;11544;42.020;23.094;2023-05-20T15:03:04;5.10;;;3.92;;
22754;SDS011;11544;42.020;23.094;2023-05-20T15:05:32;4.72;;;3.80;;
22754;SDS011;11544;42.020;23.094;2023-05-20T15:07:58;5.80;;;4.32;;
22754;SDS011;11544;42.020;23.094;2023-05-20T15:10:26;5.45;;;4.30;;
22754;SDS011;11544;42.020;23.094;2023-05-20T15:12:53;5.57;;;4.15;;
22754;SDS011;11544;42.020;23.094;2023-05-20T15:15:20;7.57;;;4.55;;
22754;SDS011;11544;42.020;23.094;2023-05-20T15:17:47;6.30;;;3.78;;
22754;SDS011;11544;42.020;23.094;2023-05-20T15:20:14;6.70;;;4.20;;
22754;SDS011;11544;42.020;23.094;2023-05-20T15:22:42;6.25;;;3.72;;
22754;SDS011;11544;42.020;23.094;2023-05-20T15:25:13;5.07;;;3.88;;